createdAt,value
2023-02-24T00:03:21.743Z,6.35
2023-02-24T00:08:23.864Z,6.51
2023-02-24T00:13:26.170Z,6.36
2023-02-24T00:18:29.586Z,6.30
2023-02-24T00:23:31.692Z,6.32
2023-02-24T00:28:34.156Z,6.30
2023-02-24T00:33:37.877Z,6.28
2023-02-24T00:38:40.909Z,6.34
2023-02-24T00:43:44.008Z,6.30
2023-02-24T00:48:49.568Z,6.32
2023-02-24T00:53:53.133Z,6.27
2023-02-24T00:58:56.427Z,6.34
2023-02-24T01:04:00.998Z,5.83
2023-02-24T01:09:03.100Z,5.43
2023-02-24T01:14:06.727Z,5.37
2023-02-24T01:19:10.683Z,5.24
2023-02-24T01:24:13.193Z,5.08
2023-02-24T01:29:15.320Z,4.94
2023-02-24T01:34:19.282Z,4.85
2023-02-24T01:39:21.165Z,4.78
2023-02-24T01:45:00.759Z,4.71
2023-02-24T01:50:05.390Z,4.54
2023-02-24T01:55:10.927Z,4.38
2023-02-24T02:00:15.668Z,4.36
2023-02-24T02:05:19.423Z,4.25
2023-02-24T02:10:21.271Z,4.24
2023-02-24T02:15:23.847Z,4.14
2023-02-24T02:20:52.889Z,4.18
2023-02-24T02:26:28.646Z,4.26
2023-02-24T02:31:55.702Z,4.11
2023-02-24T02:37:05.400Z,4.13
2023-02-24T02:42:16.400Z,4.08
2023-02-24T02:47:26.682Z,4.04
2023-02-24T02:52:36.164Z,3.98
2023-02-24T02:57:43.298Z,3.94
2023-02-24T03:02:49.852Z,3.77
2023-02-24T03:07:55.704Z,3.64
2023-02-24T03:13:00.907Z,3.66
2023-02-24T03:18:07.871Z,3.63
2023-02-24T03:23:15.293Z,3.60
2023-02-24T03:28:22.525Z,3.56
2023-02-24T03:33:31.373Z,3.55
2023-02-24T03:38:35.114Z,3.48
2023-02-24T03:49:22.998Z,3.33
2023-02-24T03:54:45.088Z,3.22
2023-02-24T04:00:14.714Z,3.35
2023-02-24T04:05:21.899Z,3.27
2023-02-24T04:10:31.904Z,3.23
2023-02-24T04:15:41.361Z,3.17
2023-02-24T04:20:46.179Z,3.07
2023-02-24T04:25:52.174Z,3.09
2023-02-24T04:30:58.982Z,3.13
2023-02-24T04:36:01.221Z,3.10
2023-02-24T04:41:05.082Z,3.10
2023-02-24T04:46:07.137Z,3.05
2023-02-24T04:51:09.228Z,3.05
2023-02-24T04:56:12.806Z,3.05
2023-02-24T05:01:14.882Z,3.07
2023-02-24T05:06:17.927Z,3.10
2023-02-24T05:11:21.688Z,3.00
2023-02-24T05:16:24.220Z,2.96
2023-02-24T05:21:26.657Z,3.10
2023-02-24T05:26:30.182Z,2.96
2023-02-24T05:31:32.438Z,2.92
2023-02-24T05:36:38.041Z,2.91
2023-02-24T05:41:43.310Z,2.89
2023-02-24T05:46:46.189Z,2.92
2023-02-24T05:51:48.335Z,2.91
2023-02-24T05:56:52.202Z,2.88
2023-02-24T06:01:54.573Z,2.84
2023-02-24T06:06:56.945Z,2.98
2023-02-24T06:12:00.540Z,2.97
2023-02-24T06:17:02.499Z,2.97
2023-02-24T06:22:04.901Z,2.94
2023-02-24T06:27:08.640Z,3.02
2023-02-24T06:32:10.978Z,3.02
2023-02-24T06:37:15.417Z,3.05
2023-02-24T06:42:18.932Z,3.13
2023-02-24T06:47:21.038Z,3.33
2023-02-24T06:52:22.736Z,3.23
2023-02-24T06:57:26.359Z,3.29
2023-02-24T07:02:28.458Z,3.28
2023-02-24T07:07:30.752Z,3.34
2023-02-24T07:12:34.256Z,3.37
2023-02-24T07:17:36.462Z,3.37
2023-02-24T07:22:39.495Z,3.36
2023-02-24T07:27:42.634Z,3.34
2023-02-24T07:32:44.998Z,3.47
2023-02-24T07:37:47.470Z,3.60
2023-02-24T07:42:53.798Z,3.65
2023-02-24T07:47:56.228Z,3.74
2023-02-24T07:52:58.711Z,3.65
2023-02-24T07:58:02.011Z,3.87
2023-02-24T08:03:04.227Z,3.91
2023-02-24T08:08:06.455Z,3.81
2023-02-24T08:13:10.313Z,3.79
2023-02-24T08:18:12.752Z,3.77
2023-02-24T08:23:15.154Z,3.68
2023-02-24T08:28:18.809Z,3.64
2023-02-24T08:33:22.583Z,3.57
2023-02-24T08:38:26.527Z,3.77
2023-02-24T08:43:32.371Z,4.03
2023-02-24T08:48:36.341Z,4.44
2023-02-24T08:53:39.626Z,4.58
2023-02-24T08:58:44.745Z,4.77
2023-02-24T09:03:48.578Z,4.65
2023-02-24T09:08:51.345Z,4.53
2023-02-24T09:13:54.904Z,4.50
2023-02-24T09:18:57.044Z,4.53
2023-02-24T09:23:59.779Z,4.51
2023-02-24T09:29:03.313Z,4.51
2023-02-24T09:34:05.572Z,4.49
2023-02-24T09:39:08.442Z,4.63
2023-02-24T09:44:17.193Z,4.54
2023-02-24T09:49:23.118Z,4.74
2023-02-24T09:54:30.184Z,5.11
2023-02-24T09:59:43.656Z,5.09
2023-02-24T10:05:00.728Z,5.22
2023-02-24T10:10:08.015Z,5.43
2023-02-24T10:15:15.618Z,5.67
2023-02-24T10:20:20.608Z,5.55
2023-02-24T10:25:30.974Z,5.58
2023-02-24T10:30:45.304Z,5.61
2023-02-24T10:35:47.817Z,5.32
2023-02-24T10:40:53.978Z,5.36
2023-02-24T10:46:00.037Z,5.17
2023-02-24T10:51:09.465Z,4.96
2023-02-24T10:56:14.902Z,4.75
2023-02-24T11:07:21.672Z,4.40
2023-02-24T11:12:25.439Z,3.92
2023-02-24T11:17:28.920Z,3.78
2023-02-24T11:22:34.163Z,3.46
2023-02-24T11:27:36.573Z,3.48
2023-02-24T11:32:53.830Z,3.34
2023-02-24T11:38:04.284Z,3.17
2023-02-24T11:43:11.997Z,3.24
2023-02-24T11:48:20.156Z,3.16
2023-02-24T11:53:44.088Z,2.94
2023-02-24T11:58:54.256Z,2.76
2023-02-24T12:04:10.072Z,2.53
2023-02-24T12:15:10.818Z,2.45
2023-02-24T12:20:23.577Z,2.47
2023-02-24T12:25:29.692Z,2.53
2023-02-24T12:30:46.001Z,2.54
2023-02-24T12:36:01.381Z,2.63
2023-02-24T12:41:19.538Z,2.56
2023-02-24T12:46:26.617Z,2.64
2023-02-24T12:51:35.631Z,2.51
2023-02-24T12:56:47.049Z,2.48
2023-02-24T13:01:57.450Z,2.48
2023-02-24T13:07:17.852Z,2.49
2023-02-24T13:12:26.602Z,2.27
2023-02-24T13:17:47.192Z,2.40
2023-02-24T13:28:33.450Z,2.36
2023-02-24T13:33:37.910Z,2.43
2023-02-24T13:38:43.680Z,2.39
2023-02-24T13:43:54.716Z,2.34
2023-02-24T13:49:26.207Z,2.43
2023-02-24T13:55:03.270Z,2.39
2023-02-24T14:00:11.511Z,2.37
2023-02-24T14:05:22.254Z,2.49
2023-02-24T14:10:29.032Z,2.42
2023-02-24T14:15:31.524Z,2.39
2023-02-24T14:20:35.143Z,2.48
2023-02-24T14:25:39.435Z,2.49
2023-02-24T14:30:42.021Z,2.51
2023-02-24T14:35:47.846Z,2.51
2023-02-24T14:40:51.373Z,2.41
2023-02-24T14:45:54.512Z,2.42
2023-02-24T14:51:03.083Z,2.38
2023-02-24T14:56:07.320Z,2.18
2023-02-24T15:01:20.271Z,2.06
2023-02-24T15:06:25.223Z,2.09
2023-02-24T15:11:31.227Z,2.18
2023-02-24T15:16:38.844Z,2.08
2023-02-24T15:21:41.855Z,2.03
2023-02-24T15:26:52.774Z,2.06
2023-02-24T15:31:56.603Z,2.08
2023-02-24T15:37:01.991Z,2.09
2023-02-24T15:42:10.211Z,2.18
2023-02-24T15:47:22.133Z,2.19
2023-02-24T15:52:26.892Z,2.19
2023-02-24T15:57:31.986Z,2.25
2023-02-24T16:02:34.124Z,2.20
2023-02-24T16:07:38.372Z,2.23
2023-02-24T16:12:47.997Z,2.19
2023-02-24T16:18:14.509Z,2.27
2023-02-24T16:23:16.660Z,2.32
2023-02-24T16:28:21.857Z,2.29
2023-02-24T16:33:24.410Z,2.32
2023-02-24T16:38:27.221Z,2.34
2023-02-24T16:43:30.635Z,2.33
2023-02-24T16:48:35.226Z,2.35
2023-02-24T16:53:37.363Z,2.36
2023-02-24T16:58:41.081Z,2.39
2023-02-24T17:03:45.712Z,2.40
2023-02-24T17:08:47.790Z,2.41
2023-02-24T17:13:51.192Z,2.39
2023-02-24T17:18:53.560Z,2.44
2023-02-24T17:23:55.679Z,2.51
2023-02-24T17:28:59.095Z,2.49
2023-02-24T17:34:01.401Z,2.49
2023-02-24T17:39:03.766Z,2.49
2023-02-24T17:44:23.610Z,2.54
2023-02-24T17:55:29.897Z,2.58
2023-02-24T18:00:40.883Z,2.63
2023-02-24T18:05:42.691Z,2.65
2023-02-24T18:10:45.396Z,2.72
2023-02-24T18:15:49.325Z,2.71
2023-02-24T18:20:51.585Z,2.74
2023-02-24T18:25:54.429Z,2.69
2023-02-24T18:30:58.733Z,2.71
2023-02-24T18:36:02.173Z,2.76
2023-02-24T18:41:07.470Z,2.80
2023-02-24T18:46:13.550Z,2.95
2023-02-24T18:51:18.485Z,3.01
2023-02-24T18:56:23.076Z,2.99
2023-02-24T19:01:30.677Z,3.00
2023-02-24T19:06:34.145Z,3.07
2023-02-24T19:11:37.108Z,3.14
2023-02-24T19:16:41.528Z,3.06
2023-02-24T19:21:44.406Z,3.13
2023-02-24T19:26:46.462Z,3.19
2023-02-24T19:31:50.109Z,3.19
2023-02-24T19:36:51.956Z,3.26
2023-02-24T19:41:54.286Z,3.27
2023-02-24T19:46:57.832Z,3.30
2023-02-24T19:52:00.339Z,3.26
2023-02-24T19:57:02.967Z,3.28
2023-02-24T20:02:06.996Z,3.30
2023-02-24T20:07:09.257Z,3.23
2023-02-24T20:12:11.837Z,3.24
2023-02-24T20:17:15.278Z,3.24
2023-02-24T20:22:17.589Z,3.25
2023-02-24T20:27:32.214Z,3.26
2023-02-24T20:32:35.659Z,3.33
2023-02-24T20:37:37.475Z,3.34
2023-02-24T20:42:40.018Z,3.34
2023-02-24T20:47:43.206Z,3.34
2023-02-24T20:52:45.195Z,3.30
2023-02-24T20:57:46.923Z,3.34
2023-02-24T21:02:50.357Z,3.37
2023-02-24T21:07:53.513Z,3.37
2023-02-24T21:12:55.606Z,3.36
2023-02-24T21:17:59.337Z,3.37
2023-02-24T21:23:01.161Z,3.35
2023-02-24T21:28:03.072Z,3.34
2023-02-24T21:33:06.529Z,3.33
2023-02-24T21:38:09.177Z,3.35
2023-02-24T21:43:11.527Z,3.41
2023-02-24T21:48:15.267Z,3.47
2023-02-24T21:53:17.297Z,3.46
2023-02-24T21:58:20.349Z,3.47
2023-02-24T22:03:24.939Z,3.44
2023-02-24T22:08:51.286Z,3.47
2023-02-24T22:13:53.558Z,3.56
2023-02-24T22:18:56.969Z,3.61
2023-02-24T22:24:01.630Z,3.67
2023-02-24T22:29:03.990Z,3.71
2023-02-24T22:34:07.587Z,3.69
2023-02-24T22:39:10.067Z,3.72
2023-02-24T22:44:12.538Z,3.67
2023-02-24T22:49:16.374Z,3.80
2023-02-24T22:54:19.074Z,3.79
2023-02-24T22:59:21.063Z,3.79
2023-02-24T23:04:24.541Z,3.77
2023-02-24T23:09:26.775Z,3.70
2023-02-24T23:14:29.272Z,3.67
2023-02-24T23:19:32.888Z,3.70
2023-02-24T23:24:34.953Z,3.66
2023-02-24T23:29:37.119Z,3.59
2023-02-24T23:34:40.782Z,3.62
2023-02-24T23:39:42.964Z,3.70
2023-02-24T23:44:45.531Z,3.69
2023-02-24T23:49:48.973Z,3.68
2023-02-24T23:54:50.991Z,3.66
2023-02-24T23:59:53.046Z,3.57
